sensor_id;sensor_type;location;lat;lon;timestamp;P1;durP1;ratioP1;P2;durP2;ratioP2
19897;SDS011;10111;50.814;4.572;2023-10-09T00:01:44;10.47;;;6.43;;
19897;SDS011;10111;50.814;4.572;2023-10-09T00:04:11;11.03;;;6.53;;
19897;SDS011;10111;50.814;4.572;2023-10-09T00:06:39;8.00;;;6.23;;
19897;SDS011;10111;50.814;4.572;2023-10-09T00:09:08;17.30;;;7.57;;
19897;SDS011;10111;50.814;4.572;2023-10-09T00:11:49;10.37;;;7.27;;
19897;SDS011;10111;50.814;4.572;2023-10-09T00:14:21;9.57;;;6.60;;
19897;SDS011;10111;50.814;4.572;2023-10-09T00:16:58;8.90;;;7.20;;
19897;SDS011;10111;50.814;4.572;2023-10-09T00:19:36;9.93;;;7.00;;
19897;SDS011;10111;50.814;4.572;2023-10-09T00:22:02;12.40;;;7.10;;
19897;SDS011;10111;50.814;4.572;2023-10-09T00:24:35;9.23;;;6.13;;
19897;SDS011;10111;50.814;4.572;2023-10-09T00:27:06;11.67;;;6.10;;
19897;SDS011;10111;50.814;4.572;2023-10-09T00:29:40;9.97;;;6.87;;
19897;SDS011;10111;50.814;4.572;2023-10-09T00:32:13;9.80;;;7.20;;
19897;SDS011;10111;50.814;4.572;2023-10-09T00:34:55;8.83;;;7.37;;
19897;SDS011;10111;50.814;4.572;2023-10-09T00:37:24;10.93;;;7.40;;
19897;SDS011;10111;50.814;4.572;2023-10-09T00:39:59;11.33;;;6.73;;
19897;SDS011;10111;50.814;4.572;2023-10-09T00:42:24;11.63;;;7.33;;
19897;SDS011;10111;50.814;4.572;2023-10-09T00:44:54;8.40;;;7.20;;
19897;SDS011;10111;50.814;4.572;2023-10-09T00:47:21;11.07;;;7.57;;
19897;SDS011;10111;50.814;4.572;2023-10-09T00:49:56;9.90;;;7.60;;
19897;SDS011;10111;50.814;4.572;2023-10-09T00:52:35;9.40;;;6.37;;
19897;SDS011;10111;50.814;4.572;2023-10-09T00:55:06;11.67;;;6.53;;
19897;SDS011;10111;50.814;4.572;2023-10-09T00:57:39;9.20;;;6.77;;
19897;SDS011;10111;50.814;4.572;2023-10-09T01:00:15;10.00;;;6.63;;
19897;SDS011;10111;50.814;4.572;2023-10-09T01:03:01;12.50;;;7.00;;
19897;SDS011;10111;50.814;4.572;2023-10-09T01:05:43;10.73;;;6.03;;
19897;SDS011;10111;50.814;4.572;2023-10-09T01:08:17;8.07;;;6.03;;
19897;SDS011;10111;50.814;4.572;2023-10-09T01:10:51;8.00;;;5.63;;
19897;SDS011;10111;50.814;4.572;2023-10-09T01:13:37;13.30;;;6.37;;
19897;SDS011;10111;50.814;4.572;2023-10-09T01:16:06;10.07;;;7.17;;
19897;SDS011;10111;50.814;4.572;2023-10-09T01:18:45;7.73;;;6.33;;
19897;SDS011;10111;50.814;4.572;2023-10-09T01:21:16;8.07;;;6.10;;
19897;SDS011;10111;50.814;4.572;2023-10-09T01:23:50;11.83;;;6.40;;
19897;SDS011;10111;50.814;4.572;2023-10-09T01:26:32;10.93;;;6.60;;
19897;SDS011;10111;50.814;4.572;2023-10-09T01:29:07;10.13;;;7.13;;
19897;SDS011;10111;50.814;4.572;2023-10-09T01:31:43;7.57;;;6.73;;
19897;SDS011;10111;50.814;4.572;2023-10-09T01:37:14;10.93;;;7.00;;
19897;SDS011;10111;50.814;4.572;2023-10-09T01:39:47;11.57;;;7.70;;
19897;SDS011;10111;50.814;4.572;2023-10-09T01:42:14;10.93;;;7.63;;
19897;SDS011;10111;50.814;4.572;2023-10-09T01:44:49;11.53;;;7.60;;
19897;SDS011;10111;50.814;4.572;2023-10-09T01:47:15;9.50;;;7.20;;
19897;SDS011;10111;50.814;4.572;2023-10-09T01:49:43;12.37;;;8.20;;
19897;SDS011;10111;50.814;4.572;2023-10-09T01:52:14;12.93;;;8.37;;
19897;SDS011;10111;50.814;4.572;2023-10-09T01:54:47;10.07;;;7.07;;
19897;SDS011;10111;50.814;4.572;2023-10-09T01:57:16;9.60;;;7.27;;
19897;SDS011;10111;50.814;4.572;2023-10-09T01:59:50;10.60;;;7.50;;
19897;SDS011;10111;50.814;4.572;2023-10-09T02:02:18;12.47;;;7.80;;
19897;SDS011;10111;50.814;4.572;2023-10-09T02:04:51;12.30;;;7.60;;
19897;SDS011;10111;50.814;4.572;2023-10-09T02:07:18;11.60;;;7.80;;
19897;SDS011;10111;50.814;4.572;2023-10-09T02:09:52;15.27;;;7.93;;
19897;SDS011;10111;50.814;4.572;2023-10-09T02:12:19;13.47;;;7.10;;
19897;SDS011;10111;50.814;4.572;2023-10-09T02:14:46;11.83;;;7.43;;
19897;SDS011;10111;50.814;4.572;2023-10-09T02:17:12;12.83;;;8.10;;
19897;SDS011;10111;50.814;4.572;2023-10-09T02:19:45;9.53;;;7.60;;
19897;SDS011;10111;50.814;4.572;2023-10-09T02:22:15;8.77;;;6.50;;
19897;SDS011;10111;50.814;4.572;2023-10-09T02:24:42;9.50;;;6.73;;
19897;SDS011;10111;50.814;4.572;2023-10-09T02:27:15;13.13;;;7.60;;
19897;SDS011;10111;50.814;4.572;2023-10-09T02:30:00;11.80;;;7.33;;
19897;SDS011;10111;50.814;4.572;2023-10-09T02:32:33;11.67;;;7.37;;
19897;SDS011;10111;50.814;4.572;2023-10-09T02:35:00;10.10;;;6.43;;
19897;SDS011;10111;50.814;4.572;2023-10-09T02:37:35;8.90;;;7.00;;
19897;SDS011;10111;50.814;4.572;2023-10-09T02:40:03;9.27;;;6.77;;
19897;SDS011;10111;50.814;4.572;2023-10-09T02:42:33;10.10;;;7.10;;
19897;SDS011;10111;50.814;4.572;2023-10-09T02:45:00;12.10;;;6.90;;
19897;SDS011;10111;50.814;4.572;2023-10-09T02:47:28;11.23;;;6.80;;
19897;SDS011;10111;50.814;4.572;2023-10-09T02:50:03;8.60;;;6.17;;
19897;SDS011;10111;50.814;4.572;2023-10-09T02:52:44;9.83;;;6.27;;
19897;SDS011;10111;50.814;4.572;2023-10-09T02:55:12;8.13;;;6.20;;
19897;SDS011;10111;50.814;4.572;2023-10-09T02:57:58;10.87;;;6.90;;
19897;SDS011;10111;50.814;4.572;2023-10-09T03:00:39;10.93;;;7.13;;
19897;SDS011;10111;50.814;4.572;2023-10-09T03:03:09;10.40;;;6.77;;
19897;SDS011;10111;50.814;4.572;2023-10-09T03:05:35;12.27;;;8.30;;
19897;SDS011;10111;50.814;4.572;2023-10-09T03:08:07;11.43;;;7.47;;
19897;SDS011;10111;50.814;4.572;2023-10-09T03:10:33;10.27;;;6.40;;
19897;SDS011;10111;50.814;4.572;2023-10-09T03:12:59;12.93;;;7.63;;
19897;SDS011;10111;50.814;4.572;2023-10-09T03:15:26;11.07;;;7.10;;
19897;SDS011;10111;50.814;4.572;2023-10-09T03:17:54;9.07;;;6.27;;
19897;SDS011;10111;50.814;4.572;2023-10-09T03:20:20;13.87;;;7.07;;
19897;SDS011;10111;50.814;4.572;2023-10-09T03:22:45;10.77;;;6.90;;
19897;SDS011;10111;50.814;4.572;2023-10-09T03:25:12;10.57;;;7.83;;
19897;SDS011;10111;50.814;4.572;2023-10-09T03:27:42;9.20;;;6.50;;
19897;SDS011;10111;50.814;4.572;2023-10-09T03:30:10;9.47;;;6.70;;
19897;SDS011;10111;50.814;4.572;2023-10-09T03:32:42;10.17;;;7.57;;
19897;SDS011;10111;50.814;4.572;2023-10-09T03:35:09;9.30;;;7.17;;
19897;SDS011;10111;50.814;4.572;2023-10-09T03:37:39;13.13;;;7.40;;
19897;SDS011;10111;50.814;4.572;2023-10-09T03:40:05;12.23;;;7.70;;
19897;SDS011;10111;50.814;4.572;2023-10-09T03:42:32;10.97;;;6.93;;
19897;SDS011;10111;50.814;4.572;2023-10-09T03:45:01;10.40;;;8.17;;
19897;SDS011;10111;50.814;4.572;2023-10-09T03:47:31;10.07;;;7.43;;
19897;SDS011;10111;50.814;4.572;2023-10-09T03:49:56;11.60;;;7.23;;
19897;SDS011;10111;50.814;4.572;2023-10-09T03:52:27;12.13;;;7.67;;
19897;SDS011;10111;50.814;4.572;2023-10-09T03:54:55;10.03;;;7.43;;
19897;SDS011;10111;50.814;4.572;2023-10-09T03:57:21;12.37;;;7.70;;
19897;SDS011;10111;50.814;4.572;2023-10-09T03:59:48;11.40;;;7.37;;
19897;SDS011;10111;50.814;4.572;2023-10-09T04:02:14;12.53;;;7.33;;
19897;SDS011;10111;50.814;4.572;2023-10-09T04:04:41;9.23;;;7.33;;
19897;SDS011;10111;50.814;4.572;2023-10-09T04:07:12;11.20;;;7.07;;
19897;SDS011;10111;50.814;4.572;2023-10-09T04:09:39;11.13;;;7.23;;
19897;SDS011;10111;50.814;4.572;2023-10-09T04:12:09;14.17;;;7.77;;
19897;SDS011;10111;50.814;4.572;2023-10-09T04:14:38;13.03;;;7.70;;
19897;SDS011;10111;50.814;4.572;2023-10-09T04:17:22;12.80;;;7.57;;
19897;SDS011;10111;50.814;4.572;2023-10-09T04:19:48;11.97;;;7.90;;
19897;SDS011;10111;50.814;4.572;2023-10-09T04:22:34;13.50;;;7.67;;
19897;SDS011;10111;50.814;4.572;2023-10-09T04:25:16;9.13;;;7.73;;
19897;SDS011;10111;50.814;4.572;2023-10-09T04:27:51;11.90;;;8.03;;
19897;SDS011;10111;50.814;4.572;2023-10-09T04:30:40;11.83;;;8.40;;
19897;SDS011;10111;50.814;4.572;2023-10-09T04:33:14;12.27;;;8.43;;
19897;SDS011;10111;50.814;4.572;2023-10-09T04:36:02;10.43;;;8.30;;
19897;SDS011;10111;50.814;4.572;2023-10-09T04:38:41;13.53;;;8.60;;
19897;SDS011;10111;50.814;4.572;2023-10-09T04:41:42;12.13;;;8.70;;
19897;SDS011;10111;50.814;4.572;2023-10-09T04:44:11;11.23;;;8.17;;
19897;SDS011;10111;50.814;4.572;2023-10-09T04:47:00;13.63;;;8.67;;
19897;SDS011;10111;50.814;4.572;2023-10-09T04:49:36;12.60;;;9.27;;
19897;SDS011;10111;50.814;4.572;2023-10-09T04:52:26;14.10;;;9.80;;
19897;SDS011;10111;50.814;4.572;2023-10-09T04:54:55;19.77;;;10.40;;
19897;SDS011;10111;50.814;4.572;2023-10-09T04:57:42;14.93;;;9.30;;
19897;SDS011;10111;50.814;4.572;2023-10-09T05:00:16;13.60;;;9.40;;
19897;SDS011;10111;50.814;4.572;2023-10-09T05:02:53;12.43;;;9.10;;
19897;SDS011;10111;50.814;4.572;2023-10-09T05:08:08;13.00;;;8.40;;
19897;SDS011;10111;50.814;4.572;2023-10-09T05:10:51;10.67;;;7.93;;
19897;SDS011;10111;50.814;4.572;2023-10-09T05:16:17;15.40;;;9.77;;
19897;SDS011;10111;50.814;4.572;2023-10-09T05:18:54;13.00;;;8.80;;
19897;SDS011;10111;50.814;4.572;2023-10-09T05:21:22;15.03;;;9.10;;
19897;SDS011;10111;50.814;4.572;2023-10-09T05:23:59;11.17;;;8.43;;
19897;SDS011;10111;50.814;4.572;2023-10-09T05:26:40;12.73;;;8.50;;
19897;SDS011;10111;50.814;4.572;2023-10-09T05:31:58;10.73;;;8.57;;
19897;SDS011;10111;50.814;4.572;2023-10-09T05:34:40;14.30;;;8.93;;
19897;SDS011;10111;50.814;4.572;2023-10-09T05:37:25;14.77;;;9.10;;
19897;SDS011;10111;50.814;4.572;2023-10-09T05:39:57;14.47;;;8.83;;
19897;SDS011;10111;50.814;4.572;2023-10-09T05:45:02;13.03;;;8.73;;
19897;SDS011;10111;50.814;4.572;2023-10-09T05:47:43;17.90;;;9.13;;
19897;SDS011;10111;50.814;4.572;2023-10-09T05:50:25;15.57;;;9.60;;
19897;SDS011;10111;50.814;4.572;2023-10-09T05:52:52;13.33;;;9.30;;
19897;SDS011;10111;50.814;4.572;2023-10-09T05:55:20;19.80;;;9.27;;
19897;SDS011;10111;50.814;4.572;2023-10-09T05:57:50;17.17;;;9.67;;
19897;SDS011;10111;50.814;4.572;2023-10-09T06:00:34;11.70;;;8.87;;
19897;SDS011;10111;50.814;4.572;2023-10-09T06:03:18;11.73;;;8.67;;
19897;SDS011;10111;50.814;4.572;2023-10-09T06:05:45;12.57;;;9.37;;
19897;SDS011;10111;50.814;4.572;2023-10-09T06:08:24;13.63;;;8.80;;
19897;SDS011;10111;50.814;4.572;2023-10-09T06:11:10;13.33;;;8.97;;
19897;SDS011;10111;50.814;4.572;2023-10-09T06:13:55;13.57;;;9.67;;
19897;SDS011;10111;50.814;4.572;2023-10-09T06:16:30;21.97;;;9.03;;
19897;SDS011;10111;50.814;4.572;2023-10-09T06:19:11;14.37;;;9.20;;
19897;SDS011;10111;50.814;4.572;2023-10-09T06:21:51;12.37;;;8.57;;
19897;SDS011;10111;50.814;4.572;2023-10-09T06:24:16;13.47;;;9.60;;
19897;SDS011;10111;50.814;4.572;2023-10-09T06:26:56;13.03;;;9.30;;
19897;SDS011;10111;50.814;4.572;2023-10-09T06:29:24;21.13;;;11.47;;
19897;SDS011;10111;50.814;4.572;2023-10-09T06:32:16;20.20;;;11.80;;
19897;SDS011;10111;50.814;4.572;2023-10-09T06:34:57;16.50;;;10.43;;
19897;SDS011;10111;50.814;4.572;2023-10-09T06:37:42;14.13;;;10.20;;
19897;SDS011;10111;50.814;4.572;2023-10-09T06:40:26;16.33;;;10.20;;
19897;SDS011;10111;50.814;4.572;2023-10-09T06:43:16;17.77;;;10.63;;
19897;SDS011;10111;50.814;4.572;2023-10-09T06:45:50;15.70;;;10.30;;
19897;SDS011;10111;50.814;4.572;2023-10-09T06:48:23;15.47;;;10.03;;
19897;SDS011;10111;50.814;4.572;2023-10-09T06:51:12;13.63;;;10.50;;
19897;SDS011;10111;50.814;4.572;2023-10-09T06:53:50;14.20;;;8.60;;
19897;SDS011;10111;50.814;4.572;2023-10-09T06:56:29;16.77;;;10.37;;
19897;SDS011;10111;50.814;4.572;2023-10-09T06:58:55;17.67;;;9.20;;
19897;SDS011;10111;50.814;4.572;2023-10-09T07:02:01;11.70;;;8.40;;
19897;SDS011;10111;50.814;4.572;2023-10-09T07:04:36;16.90;;;9.47;;
19897;SDS011;10111;50.814;4.572;2023-10-09T07:07:02;15.03;;;9.90;;
19897;SDS011;10111;50.814;4.572;2023-10-09T07:09:32;16.50;;;10.30;;
19897;SDS011;10111;50.814;4.572;2023-10-09T07:12:08;15.17;;;9.60;;
19897;SDS011;10111;50.814;4.572;2023-10-09T07:14:51;15.77;;;10.33;;
19897;SDS011;10111;50.814;4.572;2023-10-09T07:17:26;19.37;;;12.63;;
19897;SDS011;10111;50.814;4.572;2023-10-09T07:19:58;16.90;;;10.87;;
19897;SDS011;10111;50.814;4.572;2023-10-09T07:22:50;19.93;;;10.93;;
19897;SDS011;10111;50.814;4.572;2023-10-09T07:25:22;13.40;;;10.03;;
19897;SDS011;10111;50.814;4.572;2023-10-09T07:28:07;13.00;;;10.17;;
19897;SDS011;10111;50.814;4.572;2023-10-09T07:30:44;13.00;;;8.93;;
19897;SDS011;10111;50.814;4.572;2023-10-09T07:33:11;15.60;;;9.80;;
19897;SDS011;10111;50.814;4.572;2023-10-09T07:35:38;17.33;;;11.33;;
19897;SDS011;10111;50.814;4.572;2023-10-09T07:38:21;15.60;;;9.87;;
19897;SDS011;10111;50.814;4.572;2023-10-09T07:40:49;12.53;;;9.77;;
19897;SDS011;10111;50.814;4.572;2023-10-09T07:43:32;14.57;;;9.60;;
19897;SDS011;10111;50.814;4.572;2023-10-09T07:46:04;17.33;;;10.60;;
19897;SDS011;10111;50.814;4.572;2023-10-09T07:48:53;20.37;;;10.30;;
19897;SDS011;10111;50.814;4.572;2023-10-09T07:51:20;17.77;;;10.40;;
19897;SDS011;10111;50.814;4.572;2023-10-09T07:53:55;18.07;;;11.47;;
19897;SDS011;10111;50.814;4.572;2023-10-09T07:56:26;17.30;;;10.07;;
19897;SDS011;10111;50.814;4.572;2023-10-09T07:58:58;12.87;;;9.93;;
19897;SDS011;10111;50.814;4.572;2023-10-09T08:01:25;14.90;;;10.70;;
19897;SDS011;10111;50.814;4.572;2023-10-09T08:03:54;12.57;;;9.53;;
19897;SDS011;10111;50.814;4.572;2023-10-09T08:06:25;15.63;;;10.73;;
19897;SDS011;10111;50.814;4.572;2023-10-09T08:09:03;16.17;;;10.63;;
19897;SDS011;10111;50.814;4.572;2023-10-09T08:11:42;16.03;;;9.63;;
19897;SDS011;10111;50.814;4.572;2023-10-09T08:14:12;20.60;;;11.10;;
19897;SDS011;10111;50.814;4.572;2023-10-09T08:16:57;14.20;;;11.27;;
19897;SDS011;10111;50.814;4.572;2023-10-09T08:19:46;14.37;;;10.67;;
19897;SDS011;10111;50.814;4.572;2023-10-09T08:22:28;14.87;;;11.03;;
19897;SDS011;10111;50.814;4.572;2023-10-09T08:24:55;15.17;;;10.37;;
19897;SDS011;10111;50.814;4.572;2023-10-09T08:27:22;14.53;;;9.60;;
19897;SDS011;10111;50.814;4.572;2023-10-09T08:30:12;15.60;;;9.63;;
19897;SDS011;10111;50.814;4.572;2023-10-09T08:32:47;17.03;;;10.97;;
19897;SDS011;10111;50.814;4.572;2023-10-09T08:35:38;16.97;;;10.20;;
19897;SDS011;10111;50.814;4.572;2023-10-09T08:38:16;15.50;;;10.63;;
19897;SDS011;10111;50.814;4.572;2023-10-09T08:40:49;17.07;;;10.73;;
19897;SDS011;10111;50.814;4.572;2023-10-09T08:43:19;17.13;;;9.43;;
19897;SDS011;10111;50.814;4.572;2023-10-09T08:45:49;18.40;;;10.27;;
19897;SDS011;10111;50.814;4.572;2023-10-09T08:48:19;13.97;;;9.40;;
19897;SDS011;10111;50.814;4.572;2023-10-09T08:50:47;14.37;;;10.27;;
19897;SDS011;10111;50.814;4.572;2023-10-09T08:53:19;14.23;;;9.80;;
19897;SDS011;10111;50.814;4.572;2023-10-09T08:55:45;12.47;;;9.53;;
19897;SDS011;10111;50.814;4.572;2023-10-09T08:58:11;14.97;;;10.53;;
19897;SDS011;10111;50.814;4.572;2023-10-09T09:00:50;18.07;;;10.43;;
19897;SDS011;10111;50.814;4.572;2023-10-09T09:03:17;15.30;;;10.30;;
19897;SDS011;10111;50.814;4.572;2023-10-09T09:05:48;15.73;;;10.63;;
19897;SDS011;10111;50.814;4.572;2023-10-09T09:08:27;15.03;;;10.30;;
19897;SDS011;10111;50.814;4.572;2023-10-09T09:11:01;15.63;;;10.20;;
19897;SDS011;10111;50.814;4.572;2023-10-09T09:16:30;15.50;;;10.80;;
19897;SDS011;10111;50.814;4.572;2023-10-09T09:19:05;17.43;;;11.03;;
19897;SDS011;10111;50.814;4.572;2023-10-09T09:21:34;17.13;;;10.97;;
19897;SDS011;10111;50.814;4.572;2023-10-09T09:24:06;12.17;;;8.70;;
19897;SDS011;10111;50.814;4.572;2023-10-09T09:26:42;14.63;;;10.13;;
19897;SDS011;10111;50.814;4.572;2023-10-09T09:29:15;15.03;;;11.00;;
19897;SDS011;10111;50.814;4.572;2023-10-09T09:31:53;15.57;;;9.97;;
19897;SDS011;10111;50.814;4.572;2023-10-09T09:34:20;18.93;;;9.73;;
19897;SDS011;10111;50.814;4.572;2023-10-09T09:36:55;16.13;;;9.73;;
19897;SDS011;10111;50.814;4.572;2023-10-09T09:39:25;12.17;;;8.80;;
19897;SDS011;10111;50.814;4.572;2023-10-09T09:41:58;12.53;;;9.37;;
19897;SDS011;10111;50.814;4.572;2023-10-09T09:44:39;13.77;;;8.93;;
19897;SDS011;10111;50.814;4.572;2023-10-09T09:47:14;16.53;;;10.30;;
19897;SDS011;10111;50.814;4.572;2023-10-09T09:49:48;17.00;;;9.40;;
19897;SDS011;10111;50.814;4.572;2023-10-09T09:52:17;12.27;;;8.57;;
19897;SDS011;10111;50.814;4.572;2023-10-09T09:54:44;14.10;;;9.87;;
19897;SDS011;10111;50.814;4.572;2023-10-09T09:57:09;12.00;;;9.63;;
19897;SDS011;10111;50.814;4.572;2023-10-09T09:59:39;12.17;;;7.97;;
19897;SDS011;10111;50.814;4.572;2023-10-09T10:02:29;17.17;;;9.67;;
19897;SDS011;10111;50.814;4.572;2023-10-09T10:05:01;16.40;;;10.43;;
19897;SDS011;10111;50.814;4.572;2023-10-09T10:07:31;16.50;;;8.83;;
19897;SDS011;10111;50.814;4.572;2023-10-09T10:10:33;16.07;;;8.57;;
19897;SDS011;10111;50.814;4.572;2023-10-09T10:13:03;18.30;;;9.80;;
19897;SDS011;10111;50.814;4.572;2023-10-09T10:21:35;15.60;;;9.17;;
19897;SDS011;10111;50.814;4.572;2023-10-09T10:24:08;18.60;;;8.50;;
19897;SDS011;10111;50.814;4.572;2023-10-09T10:30:21;13.63;;;8.53;;
19897;SDS011;10111;50.814;4.572;2023-10-09T10:32:56;12.17;;;8.20;;
19897;SDS011;10111;50.814;4.572;2023-10-09T10:35:24;12.53;;;8.03;;
19897;SDS011;10111;50.814;4.572;2023-10-09T10:41:19;15.07;;;8.07;;
19897;SDS011;10111;50.814;4.572;2023-10-09T10:43:47;11.77;;;8.30;;
19897;SDS011;10111;50.814;4.572;2023-10-09T10:46:17;12.27;;;7.53;;
19897;SDS011;10111;50.814;4.572;2023-10-09T10:48:56;11.30;;;8.27;;
19897;SDS011;10111;50.814;4.572;2023-10-09T10:51:35;10.87;;;7.57;;
19897;SDS011;10111;50.814;4.572;2023-10-09T10:54:05;14.83;;;8.50;;
19897;SDS011;10111;50.814;4.572;2023-10-09T10:57:14;11.00;;;9.27;;
19897;SDS011;10111;50.814;4.572;2023-10-09T11:00:10;15.93;;;8.00;;
19897;SDS011;10111;50.814;4.572;2023-10-09T11:02:59;10.17;;;7.70;;
19897;SDS011;10111;50.814;4.572;2023-10-09T11:05:38;19.73;;;8.07;;
19897;SDS011;10111;50.814;4.572;2023-10-09T11:08:10;18.07;;;8.93;;
19897;SDS011;10111;50.814;4.572;2023-10-09T11:10:36;14.07;;;7.90;;
19897;SDS011;10111;50.814;4.572;2023-10-09T11:13:24;15.83;;;8.50;;
19897;SDS011;10111;50.814;4.572;2023-10-09T11:15:58;10.03;;;6.93;;
19897;SDS011;10111;50.814;4.572;2023-10-09T11:19:02;10.53;;;7.20;;
19897;SDS011;10111;50.814;4.572;2023-10-09T11:21:48;10.57;;;7.33;;
19897;SDS011;10111;50.814;4.572;2023-10-09T11:24:23;12.17;;;7.03;;
19897;SDS011;10111;50.814;4.572;2023-10-09T11:26:50;10.00;;;6.93;;
19897;SDS011;10111;50.814;4.572;2023-10-09T11:29:23;11.10;;;6.90;;
19897;SDS011;10111;50.814;4.572;2023-10-09T11:32:01;11.07;;;7.20;;
19897;SDS011;10111;50.814;4.572;2023-10-09T11:34:27;9.57;;;6.67;;
19897;SDS011;10111;50.814;4.572;2023-10-09T11:37:04;13.50;;;8.00;;
19897;SDS011;10111;50.814;4.572;2023-10-09T11:39:40;9.97;;;5.80;;
19897;SDS011;10111;50.814;4.572;2023-10-09T11:42:17;7.17;;;5.60;;
19897;SDS011;10111;50.814;4.572;2023-10-09T11:45:05;11.43;;;6.50;;
19897;SDS011;10111;50.814;4.572;2023-10-09T11:47:47;11.37;;;6.97;;
19897;SDS011;10111;50.814;4.572;2023-10-09T11:50:42;7.47;;;5.77;;
19897;SDS011;10111;50.814;4.572;2023-10-09T11:53:16;9.67;;;6.33;;
19897;SDS011;10111;50.814;4.572;2023-10-09T11:55:48;9.17;;;6.93;;
19897;SDS011;10111;50.814;4.572;2023-10-09T11:58:15;12.97;;;6.63;;
19897;SDS011;10111;50.814;4.572;2023-10-09T12:00:54;8.23;;;5.33;;
19897;SDS011;10111;50.814;4.572;2023-10-09T12:03:30;10.00;;;6.50;;
19897;SDS011;10111;50.814;4.572;2023-10-09T12:05:57;9.10;;;6.33;;
19897;SDS011;10111;50.814;4.572;2023-10-09T12:08:29;7.83;;;6.47;;
19897;SDS011;10111;50.814;4.572;2023-10-09T12:10:55;12.13;;;6.93;;
19897;SDS011;10111;50.814;4.572;2023-10-09T12:13:21;7.87;;;5.73;;
19897;SDS011;10111;50.814;4.572;2023-10-09T12:15:48;11.70;;;6.83;;
19897;SDS011;10111;50.814;4.572;2023-10-09T12:18:19;11.80;;;6.80;;
19897;SDS011;10111;50.814;4.572;2023-10-09T12:20:49;14.30;;;7.40;;
19897;SDS011;10111;50.814;4.572;2023-10-09T12:23:25;13.70;;;6.53;;
19897;SDS011;10111;50.814;4.572;2023-10-09T12:25:53;9.60;;;6.53;;
19897;SDS011;10111;50.814;4.572;2023-10-09T12:28:21;9.23;;;6.00;;
19897;SDS011;10111;50.814;4.572;2023-10-09T12:30:48;10.20;;;7.27;;
19897;SDS011;10111;50.814;4.572;2023-10-09T12:33:15;14.23;;;7.47;;
19897;SDS011;10111;50.814;4.572;2023-10-09T12:35:45;12.27;;;5.23;;
19897;SDS011;10111;50.814;4.572;2023-10-09T12:38:12;10.00;;;5.60;;
19897;SDS011;10111;50.814;4.572;2023-10-09T12:40:43;10.03;;;6.87;;
19897;SDS011;10111;50.814;4.572;2023-10-09T12:43:16;8.00;;;5.80;;
19897;SDS011;10111;50.814;4.572;2023-10-09T12:45:47;8.50;;;6.57;;
19897;SDS011;10111;50.814;4.572;2023-10-09T12:48:13;11.70;;;7.53;;
19897;SDS011;10111;50.814;4.572;2023-10-09T12:50:39;10.73;;;6.60;;
19897;SDS011;10111;50.814;4.572;2023-10-09T12:53:09;10.77;;;6.23;;
19897;SDS011;10111;50.814;4.572;2023-10-09T12:55:36;11.87;;;7.83;;
19897;SDS011;10111;50.814;4.572;2023-10-09T12:58:05;13.87;;;8.70;;
19897;SDS011;10111;50.814;4.572;2023-10-09T13:00:38;9.87;;;5.47;;
19897;SDS011;10111;50.814;4.572;2023-10-09T13:03:24;12.50;;;6.97;;
19897;SDS011;10111;50.814;4.572;2023-10-09T13:05:53;8.87;;;5.60;;
19897;SDS011;10111;50.814;4.572;2023-10-09T13:08:23;7.77;;;5.83;;
19897;SDS011;10111;50.814;4.572;2023-10-09T13:10:56;14.73;;;7.47;;
19897;SDS011;10111;50.814;4.572;2023-10-09T13:13:28;10.43;;;7.47;;
19897;SDS011;10111;50.814;4.572;2023-10-09T13:18:41;10.67;;;7.27;;
19897;SDS011;10111;50.814;4.572;2023-10-09T13:21:15;12.13;;;7.53;;
19897;SDS011;10111;50.814;4.572;2023-10-09T13:23:41;13.87;;;7.77;;
19897;SDS011;10111;50.814;4.572;2023-10-09T13:26:12;16.17;;;8.77;;
19897;SDS011;10111;50.814;4.572;2023-10-09T13:28:49;11.20;;;7.00;;
19897;SDS011;10111;50.814;4.572;2023-10-09T13:31:16;7.30;;;5.83;;
19897;SDS011;10111;50.814;4.572;2023-10-09T13:33:43;10.23;;;8.03;;
19897;SDS011;10111;50.814;4.572;2023-10-09T13:36:10;10.07;;;6.23;;
19897;SDS011;10111;50.814;4.572;2023-10-09T13:38:47;10.07;;;6.13;;
19897;SDS011;10111;50.814;4.572;2023-10-09T13:41:13;11.20;;;6.83;;
19897;SDS011;10111;50.814;4.572;2023-10-09T13:43:42;12.23;;;7.87;;
19897;SDS011;10111;50.814;4.572;2023-10-09T13:46:11;10.07;;;7.50;;
19897;SDS011;10111;50.814;4.572;2023-10-09T13:48:41;10.57;;;7.73;;
19897;SDS011;10111;50.814;4.572;2023-10-09T13:51:08;8.63;;;6.20;;
19897;SDS011;10111;50.814;4.572;2023-10-09T13:53:39;16.57;;;8.10;;
19897;SDS011;10111;50.814;4.572;2023-10-09T13:56:13;12.03;;;7.87;;
19897;SDS011;10111;50.814;4.572;2023-10-09T13:58:43;13.63;;;6.60;;
19897;SDS011;10111;50.814;4.572;2023-10-09T14:01:12;8.63;;;7.63;;
19897;SDS011;10111;50.814;4.572;2023-10-09T14:03:54;12.90;;;7.23;;
19897;SDS011;10111;50.814;4.572;2023-10-09T14:06:20;12.63;;;7.60;;
19897;SDS011;10111;50.814;4.572;2023-10-09T14:08:55;9.10;;;6.23;;
19897;SDS011;10111;50.814;4.572;2023-10-09T14:11:29;11.43;;;6.63;;
19897;SDS011;10111;50.814;4.572;2023-10-09T14:13:55;13.30;;;7.80;;
19897;SDS011;10111;50.814;4.572;2023-10-09T14:16:21;9.20;;;5.70;;
19897;SDS011;10111;50.814;4.572;2023-10-09T14:18:50;13.27;;;7.07;;
19897;SDS011;10111;50.814;4.572;2023-10-09T14:21:21;10.23;;;6.57;;
19897;SDS011;10111;50.814;4.572;2023-10-09T14:23:50;13.13;;;7.47;;
19897;SDS011;10111;50.814;4.572;2023-10-09T14:26:20;15.83;;;7.53;;
19897;SDS011;10111;50.814;4.572;2023-10-09T14:28:47;13.40;;;7.40;;
19897;SDS011;10111;50.814;4.572;2023-10-09T14:31:13;9.13;;;7.37;;
19897;SDS011;10111;50.814;4.572;2023-10-09T14:33:46;7.23;;;6.50;;
19897;SDS011;10111;50.814;4.572;2023-10-09T14:36:18;13.17;;;8.20;;
19897;SDS011;10111;50.814;4.572;2023-10-09T14:38:46;15.47;;;9.20;;
19897;SDS011;10111;50.814;4.572;2023-10-09T14:41:17;9.10;;;7.83;;
19897;SDS011;10111;50.814;4.572;2023-10-09T14:43:48;18.83;;;9.33;;
19897;SDS011;10111;50.814;4.572;2023-10-09T14:46:14;12.27;;;8.93;;
19897;SDS011;10111;50.814;4.572;2023-10-09T14:48:40;11.70;;;8.33;;
19897;SDS011;10111;50.814;4.572;2023-10-09T14:51:10;12.03;;;8.37;;
19897;SDS011;10111;50.814;4.572;2023-10-09T14:53:38;11.67;;;6.10;;
19897;SDS011;10111;50.814;4.572;2023-10-09T14:56:05;14.00;;;9.47;;
19897;SDS011;10111;50.814;4.572;2023-10-09T14:58:34;20.13;;;9.83;;
19897;SDS011;10111;50.814;4.572;2023-10-09T15:01:07;13.90;;;8.03;;
19897;SDS011;10111;50.814;4.572;2023-10-09T15:03:38;13.10;;;9.13;;
19897;SDS011;10111;50.814;4.572;2023-10-09T15:06:04;16.47;;;8.90;;
19897;SDS011;10111;50.814;4.572;2023-10-09T15:08:35;13.83;;;9.40;;
19897;SDS011;10111;50.814;4.572;2023-10-09T15:11:01;12.87;;;8.53;;
19897;SDS011;10111;50.814;4.572;2023-10-09T15:13:27;9.87;;;8.07;;
19897;SDS011;10111;50.814;4.572;2023-10-09T15:15:53;13.50;;;9.30;;
19897;SDS011;10111;50.814;4.572;2023-10-09T15:18:20;12.90;;;9.00;;
19897;SDS011;10111;50.814;4.572;2023-10-09T15:20:47;15.57;;;9.80;;
19897;SDS011;10111;50.814;4.572;2023-10-09T15:23:14;13.07;;;9.07;;
19897;SDS011;10111;50.814;4.572;2023-10-09T15:25:40;15.90;;;9.67;;
19897;SDS011;10111;50.814;4.572;2023-10-09T15:28:10;14.90;;;9.73;;
19897;SDS011;10111;50.814;4.572;2023-10-09T15:30:36;14.27;;;9.37;;
19897;SDS011;10111;50.814;4.572;2023-10-09T15:33:06;13.00;;;9.23;;
19897;SDS011;10111;50.814;4.572;2023-10-09T15:35:33;15.33;;;10.13;;
19897;SDS011;10111;50.814;4.572;2023-10-09T15:38:00;16.43;;;9.53;;
19897;SDS011;10111;50.814;4.572;2023-10-09T15:40:31;12.67;;;9.37;;
19897;SDS011;10111;50.814;4.572;2023-10-09T15:43:01;16.93;;;9.30;;
19897;SDS011;10111;50.814;4.572;2023-10-09T15:45:29;14.80;;;9.40;;